sensor_id;sensor_type;location;lat;lon;timestamp;temperature;humidity
33476;DHT22;19814;48.224;11.422;2023-03-11T00:00:12;2.90;96.70
33476;DHT22;19814;48.224;11.422;2023-03-11T00:02:46;2.90;96.50
33476;DHT22;19814;48.224;11.422;2023-03-11T00:05:22;2.90;96.50
33476;DHT22;19814;48.224;11.422;2023-03-11T00:07:57;2.80;96.50
33476;DHT22;19814;48.224;11.422;2023-03-11T00:10:28;2.70;96.70
33476;DHT22;19814;48.224;11.422;2023-03-11T00:12:56;2.70;96.60
33476;DHT22;19814;48.224;11.422;2023-03-11T00:15:22;2.70;96.40
33476;DHT22;19814;48.224;11.422;2023-03-11T00:17:50;2.70;96.60
33476;DHT22;19814;48.224;11.422;2023-03-11T00:20:24;2.70;96.60
33476;DHT22;19814;48.224;11.422;2023-03-11T00:22:50;2.70;96.40
33476;DHT22;19814;48.224;11.422;2023-03-11T00:25:17;2.70;96.50
33476;DHT22;19814;48.224;11.422;2023-03-11T00:27:44;2.70;96.70
33476;DHT22;19814;48.224;11.422;2023-03-11T00:30:11;2.70;96.70
33476;DHT22;19814;48.224;11.422;2023-03-11T00:32:38;2.70;96.90
33476;DHT22;19814;48.224;11.422;2023-03-11T00:35:04;2.60;97.30
33476;DHT22;19814;48.224;11.422;2023-03-11T00:37:31;2.60;97.50
33476;DHT22;19814;48.224;11.422;2023-03-11T00:40:00;2.60;97.40
33476;DHT22;19814;48.224;11.422;2023-03-11T00:42:34;2.60;97.40
33476;DHT22;19814;48.224;11.422;2023-03-11T00:44:59;2.60;97.40
33476;DHT22;19814;48.224;11.422;2023-03-11T00:47:25;2.60;97.30
33476;DHT22;19814;48.224;11.422;2023-03-11T00:49:52;2.60;97.60
33476;DHT22;19814;48.224;11.422;2023-03-11T00:52:19;2.60;97.60
33476;DHT22;19814;48.224;11.422;2023-03-11T00:54:45;2.50;97.90
33476;DHT22;19814;48.224;11.422;2023-03-11T00:57:11;2.50;97.20
33476;DHT22;19814;48.224;11.422;2023-03-11T00:59:36;2.60;97.40
33476;DHT22;19814;48.224;11.422;2023-03-11T01:02:02;2.60;97.10
33476;DHT22;19814;48.224;11.422;2023-03-11T01:04:27;2.60;97.30
33476;DHT22;19814;48.224;11.422;2023-03-11T01:06:53;2.60;96.90
33476;DHT22;19814;48.224;11.422;2023-03-11T01:09:18;2.60;96.80
33476;DHT22;19814;48.224;11.422;2023-03-11T01:11:44;2.50;96.90
33476;DHT22;19814;48.224;11.422;2023-03-11T01:14:10;2.50;96.90
33476;DHT22;19814;48.224;11.422;2023-03-11T01:16:35;2.50;97.10
33476;DHT22;19814;48.224;11.422;2023-03-11T01:19:01;2.50;97.00
33476;DHT22;19814;48.224;11.422;2023-03-11T01:21:28;2.50;96.90
33476;DHT22;19814;48.224;11.422;2023-03-11T01:23:55;2.40;97.10
33476;DHT22;19814;48.224;11.422;2023-03-11T01:26:21;2.40;96.90
33476;DHT22;19814;48.224;11.422;2023-03-11T01:28:47;2.30;97.10
33476;DHT22;19814;48.224;11.422;2023-03-11T01:31:13;2.30;97.30
33476;DHT22;19814;48.224;11.422;2023-03-11T01:33:39;2.30;97.10
33476;DHT22;19814;48.224;11.422;2023-03-11T01:36:05;2.30;97.00
33476;DHT22;19814;48.224;11.422;2023-03-11T01:38:34;2.30;97.00
33476;DHT22;19814;48.224;11.422;2023-03-11T01:41:01;2.30;97.10
33476;DHT22;19814;48.224;11.422;2023-03-11T01:46:11;2.30;97.30
33476;DHT22;19814;48.224;11.422;2023-03-11T01:48:37;2.30;96.90
33476;DHT22;19814;48.224;11.422;2023-03-11T01:51:03;2.30;97.10
33476;DHT22;19814;48.224;11.422;2023-03-11T01:53:30;2.20;96.60
33476;DHT22;19814;48.224;11.422;2023-03-11T01:55:55;2.20;96.90
33476;DHT22;19814;48.224;11.422;2023-03-11T01:58:26;2.20;96.90
33476;DHT22;19814;48.224;11.422;2023-03-11T02:00:53;2.20;96.40
33476;DHT22;19814;48.224;11.422;2023-03-11T02:03:24;2.20;95.90
33476;DHT22;19814;48.224;11.422;2023-03-11T02:05:50;2.10;96.00
33476;DHT22;19814;48.224;11.422;2023-03-11T02:08:17;2.10;96.20
33476;DHT22;19814;48.224;11.422;2023-03-11T02:10:43;2.10;95.70
33476;DHT22;19814;48.224;11.422;2023-03-11T02:13:09;2.10;95.70
33476;DHT22;19814;48.224;11.422;2023-03-11T02:15:35;2.10;95.90
33476;DHT22;19814;48.224;11.422;2023-03-11T02:18:02;2.10;96.20
33476;DHT22;19814;48.224;11.422;2023-03-11T02:20:40;2.00;96.20
33476;DHT22;19814;48.224;11.422;2023-03-11T02:23:07;2.00;96.30
33476;DHT22;19814;48.224;11.422;2023-03-11T02:28:17;2.00;96.20
33476;DHT22;19814;48.224;11.422;2023-03-11T02:30:43;1.90;96.40
33476;DHT22;19814;48.224;11.422;2023-03-11T02:33:09;1.90;96.20
33476;DHT22;19814;48.224;11.422;2023-03-11T02:35:36;1.90;96.30
33476;DHT22;19814;48.224;11.422;2023-03-11T02:38:02;1.90;96.30
33476;DHT22;19814;48.224;11.422;2023-03-11T02:40:35;1.90;96.20
33476;DHT22;19814;48.224;11.422;2023-03-11T02:43:02;1.90;96.50
33476;DHT22;19814;48.224;11.422;2023-03-11T02:45:29;1.90;96.60
33476;DHT22;19814;48.224;11.422;2023-03-11T02:47:56;1.80;96.90
33476;DHT22;19814;48.224;11.422;2023-03-11T02:50:22;1.80;96.60
33476;DHT22;19814;48.224;11.422;2023-03-11T02:52:49;1.80;96.40
33476;DHT22;19814;48.224;11.422;2023-03-11T02:55:15;1.80;96.20
33476;DHT22;19814;48.224;11.422;2023-03-11T02:57:42;1.80;96.30
33476;DHT22;19814;48.224;11.422;2023-03-11T03:00:08;1.80;95.90
33476;DHT22;19814;48.224;11.422;2023-03-11T03:02:38;1.80;96.00
33476;DHT22;19814;48.224;11.422;2023-03-11T03:05:04;1.70;96.30
33476;DHT22;19814;48.224;11.422;2023-03-11T03:07:30;1.80;95.90
33476;DHT22;19814;48.224;11.422;2023-03-11T03:09:55;1.70;95.70
33476;DHT22;19814;48.224;11.422;2023-03-11T03:12:21;1.70;96.00
33476;DHT22;19814;48.224;11.422;2023-03-11T03:14:46;1.70;96.20
33476;DHT22;19814;48.224;11.422;2023-03-11T03:17:12;1.70;96.50
33476;DHT22;19814;48.224;11.422;2023-03-11T03:19:37;1.70;96.40
33476;DHT22;19814;48.224;11.422;2023-03-11T03:22:03;1.70;96.60
33476;DHT22;19814;48.224;11.422;2023-03-11T03:24:28;1.60;97.10
33476;DHT22;19814;48.224;11.422;2023-03-11T03:26:54;1.60;96.80
33476;DHT22;19814;48.224;11.422;2023-03-11T03:29:19;1.60;97.00
33476;DHT22;19814;48.224;11.422;2023-03-11T03:31:45;1.60;96.80
33476;DHT22;19814;48.224;11.422;2023-03-11T03:34:10;1.50;97.00
33476;DHT22;19814;48.224;11.422;2023-03-11T03:36:36;1.60;96.90
33476;DHT22;19814;48.224;11.422;2023-03-11T03:39:02;1.60;96.80
33476;DHT22;19814;48.224;11.422;2023-03-11T03:41:27;1.50;97.10
33476;DHT22;19814;48.224;11.422;2023-03-11T03:43:53;1.60;96.80
33476;DHT22;19814;48.224;11.422;2023-03-11T03:46:19;1.50;97.20
33476;DHT22;19814;48.224;11.422;2023-03-11T03:48:44;1.50;97.20
33476;DHT22;19814;48.224;11.422;2023-03-11T03:51:10;1.50;97.20
33476;DHT22;19814;48.224;11.422;2023-03-11T03:53:36;1.50;97.10
33476;DHT22;19814;48.224;11.422;2023-03-11T03:56:12;1.50;97.00
33476;DHT22;19814;48.224;11.422;2023-03-11T03:58:38;1.50;97.00
33476;DHT22;19814;48.224;11.422;2023-03-11T04:01:04;1.40;97.40
33476;DHT22;19814;48.224;11.422;2023-03-11T04:03:29;1.40;97.50
33476;DHT22;19814;48.224;11.422;2023-03-11T04:08:53;1.30;97.30
33476;DHT22;19814;48.224;11.422;2023-03-11T04:11:19;1.30;97.60
33476;DHT22;19814;48.224;11.422;2023-03-11T04:13:45;1.30;97.60
33476;DHT22;19814;48.224;11.422;2023-03-11T04:16:20;1.30;97.70
33476;DHT22;19814;48.224;11.422;2023-03-11T04:18:46;1.30;97.80
33476;DHT22;19814;48.224;11.422;2023-03-11T04:21:11;1.30;98.00
33476;DHT22;19814;48.224;11.422;2023-03-11T04:23:37;1.30;98.00
33476;DHT22;19814;48.224;11.422;2023-03-11T04:26:02;1.30;97.90
33476;DHT22;19814;48.224;11.422;2023-03-11T04:28:28;1.30;97.80
33476;DHT22;19814;48.224;11.422;2023-03-11T04:30:54;1.30;98.10
33476;DHT22;19814;48.224;11.422;2023-03-11T04:33:20;1.30;98.10
33476;DHT22;19814;48.224;11.422;2023-03-11T04:35:45;1.40;98.00
33476;DHT22;19814;48.224;11.422;2023-03-11T04:38:11;1.40;98.10
33476;DHT22;19814;48.224;11.422;2023-03-11T04:40:37;1.40;98.10
33476;DHT22;19814;48.224;11.422;2023-03-11T04:43:02;1.50;98.20
33476;DHT22;19814;48.224;11.422;2023-03-11T04:45:28;1.50;98.20
33476;DHT22;19814;48.224;11.422;2023-03-11T04:47:53;1.50;98.30
33476;DHT22;19814;48.224;11.422;2023-03-11T04:50:19;1.50;98.20
33476;DHT22;19814;48.224;11.422;2023-03-11T04:52:45;1.50;98.30
33476;DHT22;19814;48.224;11.422;2023-03-11T04:55:10;1.50;98.30
33476;DHT22;19814;48.224;11.422;2023-03-11T04:57:38;1.60;98.30
33476;DHT22;19814;48.224;11.422;2023-03-11T05:00:04;1.60;98.40
33476;DHT22;19814;48.224;11.422;2023-03-11T05:02:37;1.70;98.00
33476;DHT22;19814;48.224;11.422;2023-03-11T05:05:04;1.70;98.20
33476;DHT22;19814;48.224;11.422;2023-03-11T05:07:31;1.70;98.20
33476;DHT22;19814;48.224;11.422;2023-03-11T05:09:56;1.70;98.50
33476;DHT22;19814;48.224;11.422;2023-03-11T05:12:22;1.80;98.40
33476;DHT22;19814;48.224;11.422;2023-03-11T05:14:53;1.80;98.30
33476;DHT22;19814;48.224;11.422;2023-03-11T05:17:19;1.80;98.40
33476;DHT22;19814;48.224;11.422;2023-03-11T05:19:45;1.80;97.90
33476;DHT22;19814;48.224;11.422;2023-03-11T05:22:12;1.80;97.20
33476;DHT22;19814;48.224;11.422;2023-03-11T05:24:38;1.70;96.40
33476;DHT22;19814;48.224;11.422;2023-03-11T05:27:04;1.60;95.20
33476;DHT22;19814;48.224;11.422;2023-03-11T05:29:31;1.60;95.80
33476;DHT22;19814;48.224;11.422;2023-03-11T05:31:56;1.60;95.30
33476;DHT22;19814;48.224;11.422;2023-03-11T05:34:22;1.70;95.20
33476;DHT22;19814;48.224;11.422;2023-03-11T05:36:47;1.60;94.70
33476;DHT22;19814;48.224;11.422;2023-03-11T05:39:14;1.60;94.30
33476;DHT22;19814;48.224;11.422;2023-03-11T05:41:42;1.60;94.80
33476;DHT22;19814;48.224;11.422;2023-03-11T05:44:07;1.50;95.10
33476;DHT22;19814;48.224;11.422;2023-03-11T05:46:33;1.60;94.50
33476;DHT22;19814;48.224;11.422;2023-03-11T05:48:58;1.60;94.60
33476;DHT22;19814;48.224;11.422;2023-03-11T05:51:24;1.60;94.70
33476;DHT22;19814;48.224;11.422;2023-03-11T05:53:50;1.60;94.60
33476;DHT22;19814;48.224;11.422;2023-03-11T05:56:19;1.60;94.10
33476;DHT22;19814;48.224;11.422;2023-03-11T05:58:45;1.60;94.20
33476;DHT22;19814;48.224;11.422;2023-03-11T06:01:11;1.50;94.00
33476;DHT22;19814;48.224;11.422;2023-03-11T06:03:37;1.50;94.40
33476;DHT22;19814;48.224;11.422;2023-03-11T06:06:04;1.50;94.00
33476;DHT22;19814;48.224;11.422;2023-03-11T06:08:30;1.40;94.40
33476;DHT22;19814;48.224;11.422;2023-03-11T06:11:08;1.40;94.80
33476;DHT22;19814;48.224;11.422;2023-03-11T06:13:34;1.40;94.70
33476;DHT22;19814;48.224;11.422;2023-03-11T06:16:00;1.40;94.60
33476;DHT22;19814;48.224;11.422;2023-03-11T06:18:25;1.40;94.60
33476;DHT22;19814;48.224;11.422;2023-03-11T06:20:51;1.40;94.80
33476;DHT22;19814;48.224;11.422;2023-03-11T06:23:17;1.40;94.50
33476;DHT22;19814;48.224;11.422;2023-03-11T06:25:42;1.40;94.70
33476;DHT22;19814;48.224;11.422;2023-03-11T06:28:08;1.40;95.10
33476;DHT22;19814;48.224;11.422;2023-03-11T06:30:33;1.40;94.70
33476;DHT22;19814;48.224;11.422;2023-03-11T06:32:59;1.40;94.90
33476;DHT22;19814;48.224;11.422;2023-03-11T06:35:24;1.50;94.80
33476;DHT22;19814;48.224;11.422;2023-03-11T06:37:50;1.50;94.80
33476;DHT22;19814;48.224;11.422;2023-03-11T06:40:15;1.50;95.20
33476;DHT22;19814;48.224;11.422;2023-03-11T06:42:41;1.50;94.80
33476;DHT22;19814;48.224;11.422;2023-03-11T06:45:06;1.60;95.10
33476;DHT22;19814;48.224;11.422;2023-03-11T06:47:32;1.70;95.20
33476;DHT22;19814;48.224;11.422;2023-03-11T06:49:57;1.70;95.20
33476;DHT22;19814;48.224;11.422;2023-03-11T06:52:23;1.80;95.20
33476;DHT22;19814;48.224;11.422;2023-03-11T06:54:48;1.80;94.90
33476;DHT22;19814;48.224;11.422;2023-03-11T06:57:14;1.80;94.80
33476;DHT22;19814;48.224;11.422;2023-03-11T06:59:40;1.80;95.30
33476;DHT22;19814;48.224;11.422;2023-03-11T07:02:05;1.90;95.50
33476;DHT22;19814;48.224;11.422;2023-03-11T07:04:31;1.80;95.60
33476;DHT22;19814;48.224;11.422;2023-03-11T07:06:57;1.70;95.20
33476;DHT22;19814;48.224;11.422;2023-03-11T07:09:22;1.60;95.70
33476;DHT22;19814;48.224;11.422;2023-03-11T07:11:52;1.80;96.10
33476;DHT22;19814;48.224;11.422;2023-03-11T07:14:17;2.00;95.40
33476;DHT22;19814;48.224;11.422;2023-03-11T07:16:43;2.10;95.40
33476;DHT22;19814;48.224;11.422;2023-03-11T07:19:09;2.40;94.90
33476;DHT22;19814;48.224;11.422;2023-03-11T07:21:35;2.60;94.40
33476;DHT22;19814;48.224;11.422;2023-03-11T07:24:01;2.70;94.50
33476;DHT22;19814;48.224;11.422;2023-03-11T07:26:27;2.90;93.90
33476;DHT22;19814;48.224;11.422;2023-03-11T07:28:53;2.50;93.30
33476;DHT22;19814;48.224;11.422;2023-03-11T07:31:20;2.00;94.90
33476;DHT22;19814;48.224;11.422;2023-03-11T07:33:47;1.80;95.30
33476;DHT22;19814;48.224;11.422;2023-03-11T07:36:14;2.00;95.10
33476;DHT22;19814;48.224;11.422;2023-03-11T07:38:39;2.80;93.50
33476;DHT22;19814;48.224;11.422;2023-03-11T07:41:05;3.50;92.10
33476;DHT22;19814;48.224;11.422;2023-03-11T07:43:31;4.10;91.30
33476;DHT22;19814;48.224;11.422;2023-03-11T07:48:28;5.00;89.10
33476;DHT22;19814;48.224;11.422;2023-03-11T07:51:00;5.00;89.50
33476;DHT22;19814;48.224;11.422;2023-03-11T07:53:25;5.40;88.00
33476;DHT22;19814;48.224;11.422;2023-03-11T07:55:54;5.90;85.80
33476;DHT22;19814;48.224;11.422;2023-03-11T07:58:20;5.80;86.60
33476;DHT22;19814;48.224;11.422;2023-03-11T08:00:46;6.30;83.90
33476;DHT22;19814;48.224;11.422;2023-03-11T08:03:11;6.30;84.10
33476;DHT22;19814;48.224;11.422;2023-03-11T08:05:36;6.80;81.40
33476;DHT22;19814;48.224;11.422;2023-03-11T08:08:02;7.10;80.50
33476;DHT22;19814;48.224;11.422;2023-03-11T08:10:27;7.50;80.30
33476;DHT22;19814;48.224;11.422;2023-03-11T08:12:53;8.10;79.00
33476;DHT22;19814;48.224;11.422;2023-03-11T08:15:18;8.50;76.20
33476;DHT22;19814;48.224;11.422;2023-03-11T08:17:44;8.70;75.40
33476;DHT22;19814;48.224;11.422;2023-03-11T08:20:09;9.30;74.20
33476;DHT22;19814;48.224;11.422;2023-03-11T08:22:35;8.80;72.60
33476;DHT22;19814;48.224;11.422;2023-03-11T08:25:00;9.30;71.80
33476;DHT22;19814;48.224;11.422;2023-03-11T08:27:26;9.10;71.50
33476;DHT22;19814;48.224;11.422;2023-03-11T08:29:52;8.80;72.40
33476;DHT22;19814;48.224;11.422;2023-03-11T08:32:18;9.00;71.90
33476;DHT22;19814;48.224;11.422;2023-03-11T08:34:43;8.40;73.90
33476;DHT22;19814;48.224;11.422;2023-03-11T08:37:08;8.80;74.70
33476;DHT22;19814;48.224;11.422;2023-03-11T08:39:34;9.30;70.00
33476;DHT22;19814;48.224;11.422;2023-03-11T08:42:00;8.90;70.70
33476;DHT22;19814;48.224;11.422;2023-03-11T08:44:25;8.30;70.90
33476;DHT22;19814;48.224;11.422;2023-03-11T08:46:51;7.90;72.10
33476;DHT22;19814;48.224;11.422;2023-03-11T08:49:16;7.70;72.10
33476;DHT22;19814;48.224;11.422;2023-03-11T08:51:42;7.80;72.80
33476;DHT22;19814;48.224;11.422;2023-03-11T08:54:07;7.70;72.90
33476;DHT22;19814;48.224;11.422;2023-03-11T08:56:33;7.40;72.30
33476;DHT22;19814;48.224;11.422;2023-03-11T08:58:58;7.20;75.40
33476;DHT22;19814;48.224;11.422;2023-03-11T09:01:24;7.20;73.20
33476;DHT22;19814;48.224;11.422;2023-03-11T09:03:50;7.70;73.40
33476;DHT22;19814;48.224;11.422;2023-03-11T09:06:15;7.80;72.60
33476;DHT22;19814;48.224;11.422;2023-03-11T09:08:42;7.30;74.30
33476;DHT22;19814;48.224;11.422;2023-03-11T09:11:08;6.60;74.10
33476;DHT22;19814;48.224;11.422;2023-03-11T09:13:33;6.20;75.70
33476;DHT22;19814;48.224;11.422;2023-03-11T09:15:59;5.60;76.20
33476;DHT22;19814;48.224;11.422;2023-03-11T09:18:26;5.70;75.80
33476;DHT22;19814;48.224;11.422;2023-03-11T09:20:53;5.80;75.00
33476;DHT22;19814;48.224;11.422;2023-03-11T09:23:22;5.60;74.80
33476;DHT22;19814;48.224;11.422;2023-03-11T09:25:47;6.20;76.10
33476;DHT22;19814;48.224;11.422;2023-03-11T09:28:13;6.90;73.20
33476;DHT22;19814;48.224;11.422;2023-03-11T09:30:38;7.90;72.30
33476;DHT22;19814;48.224;11.422;2023-03-11T09:33:04;9.00;67.40
33476;DHT22;19814;48.224;11.422;2023-03-11T09:35:29;8.90;68.20
33476;DHT22;19814;48.224;11.422;2023-03-11T09:37:55;7.90;70.00
33476;DHT22;19814;48.224;11.422;2023-03-11T09:40:21;7.70;72.70
33476;DHT22;19814;48.224;11.422;2023-03-11T09:45:14;10.00;64.50
33476;DHT22;19814;48.224;11.422;2023-03-11T09:50:25;10.90;65.00
33476;DHT22;19814;48.224;11.422;2023-03-11T09:55:32;11.20;59.40
33476;DHT22;19814;48.224;11.422;2023-03-11T09:57:59;9.00;64.80
33476;DHT22;19814;48.224;11.422;2023-03-11T10:00:25;7.70;67.40
33476;DHT22;19814;48.224;11.422;2023-03-11T10:02:51;7.70;67.00
33476;DHT22;19814;48.224;11.422;2023-03-11T10:07:46;11.00;62.80
33476;DHT22;19814;48.224;11.422;2023-03-11T10:10:15;12.00;58.60
33476;DHT22;19814;48.224;11.422;2023-03-11T10:28:02;12.70;53.60
33476;DHT22;19814;48.224;11.422;2023-03-11T10:30:31;13.20;54.90
33476;DHT22;19814;48.224;11.422;2023-03-11T10:33:06;13.50;54.70
33476;DHT22;19814;48.224;11.422;2023-03-11T10:35:43;11.40;59.90
33476;DHT22;19814;48.224;11.422;2023-03-11T10:38:14;9.00;60.60
33476;DHT22;19814;48.224;11.422;2023-03-11T10:40:42;8.00;63.50
33476;DHT22;19814;48.224;11.422;2023-03-11T10:43:27;7.80;62.60
33476;DHT22;19814;48.224;11.422;2023-03-11T10:45:55;8.00;63.60
33476;DHT22;19814;48.224;11.422;2023-03-11T10:48:21;10.20;59.60
33476;DHT22;19814;48.224;11.422;2023-03-11T10:50:52;12.60;54.10
33476;DHT22;19814;48.224;11.422;2023-03-11T10:53:19;12.70;52.70
33476;DHT22;19814;48.224;11.422;2023-03-11T10:55:49;11.30;53.00
33476;DHT22;19814;48.224;11.422;2023-03-11T10:58:19;10.40;55.40
33476;DHT22;19814;48.224;11.422;2023-03-11T11:00:45;9.80;56.50
33476;DHT22;19814;48.224;11.422;2023-03-11T11:03:12;9.60;53.40
33476;DHT22;19814;48.224;11.422;2023-03-11T11:05:39;11.00;54.50
33476;DHT22;19814;48.224;11.422;2023-03-11T11:08:15;11.50;53.90
33476;DHT22;19814;48.224;11.422;2023-03-11T11:10:48;10.70;53.30
33476;DHT22;19814;48.224;11.422;2023-03-11T11:13:16;9.90;56.40
33476;DHT22;19814;48.224;11.422;2023-03-11T11:18:33;9.20;58.50
33476;DHT22;19814;48.224;11.422;2023-03-11T11:21:01;9.90;57.90
33476;DHT22;19814;48.224;11.422;2023-03-11T11:23:31;11.50;56.70
33476;DHT22;19814;48.224;11.422;2023-03-11T11:25:59;12.40;53.80
33476;DHT22;19814;48.224;11.422;2023-03-11T11:28:25;13.90;52.00
33476;DHT22;19814;48.224;11.422;2023-03-11T11:33:48;15.40;44.90
33476;DHT22;19814;48.224;11.422;2023-03-11T11:36:05;15.20;46.40
33476;DHT22;19814;48.224;11.422;2023-03-11T11:38:36;14.50;46.50
33476;DHT22;19814;48.224;11.422;2023-03-11T11:41:02;13.30;48.00
33476;DHT22;19814;48.224;11.422;2023-03-11T11:46:10;11.90;51.90
33476;DHT22;19814;48.224;11.422;2023-03-11T11:48:59;10.90;54.70
33476;DHT22;19814;48.224;11.422;2023-03-11T11:51:40;10.30;54.50
33476;DHT22;19814;48.224;11.422;2023-03-11T11:54:17;9.90;56.40
33476;DHT22;19814;48.224;11.422;2023-03-11T11:56:45;9.40;55.60
33476;DHT22;19814;48.224;11.422;2023-03-11T11:59:14;9.20;56.10
33476;DHT22;19814;48.224;11.422;2023-03-11T12:09:29;13.50;53.20
33476;DHT22;19814;48.224;11.422;2023-03-11T12:14:43;12.50;52.40
33476;DHT22;19814;48.224;11.422;2023-03-11T12:17:11;13.30;50.50
33476;DHT22;19814;48.224;11.422;2023-03-11T12:19:42;13.50;48.10
33476;DHT22;19814;48.224;11.422;2023-03-11T12:29:47;14.80;47.40
33476;DHT22;19814;48.224;11.422;2023-03-11T12:32:22;16.10;46.90
33476;DHT22;19814;48.224;11.422;2023-03-11T12:34:49;13.70;47.80
33476;DHT22;19814;48.224;11.422;2023-03-11T12:37:14;10.90;51.90
33476;DHT22;19814;48.224;11.422;2023-03-11T12:39:43;9.90;55.60
33476;DHT22;19814;48.224;11.422;2023-03-11T12:44:37;10.50;52.90
33476;DHT22;19814;48.224;11.422;2023-03-11T12:49:32;11.60;50.40
33476;DHT22;19814;48.224;11.422;2023-03-11T12:54:33;10.70;53.00
33476;DHT22;19814;48.224;11.422;2023-03-11T12:57:00;9.90;56.30
33476;DHT22;19814;48.224;11.422;2023-03-11T12:59:47;9.50;59.40
33476;DHT22;19814;48.224;11.422;2023-03-11T13:05:04;8.70;56.80
33476;DHT22;19814;48.224;11.422;2023-03-11T13:12:38;8.50;57.70
33476;DHT22;19814;48.224;11.422;2023-03-11T13:18:01;8.30;59.00
33476;DHT22;19814;48.224;11.422;2023-03-11T13:23:07;8.10;58.90
33476;DHT22;19814;48.224;11.422;2023-03-11T13:25:37;8.30;58.60
33476;DHT22;19814;48.224;11.422;2023-03-11T13:30:38;8.70;58.00
33476;DHT22;19814;48.224;11.422;2023-03-11T13:33:23;8.60;57.80
33476;DHT22;19814;48.224;11.422;2023-03-11T13:35:57;8.40;58.40
33476;DHT22;19814;48.224;11.422;2023-03-11T13:44:11;8.00;59.50
33476;DHT22;19814;48.224;11.422;2023-03-11T13:46:39;8.10;58.00
33476;DHT22;19814;48.224;11.422;2023-03-11T13:49:05;7.90;59.00
33476;DHT22;19814;48.224;11.422;2023-03-11T13:51:43;7.80;59.70
33476;DHT22;19814;48.224;11.422;2023-03-11T13:56:41;8.20;61.00
33476;DHT22;19814;48.224;11.422;2023-03-11T13:59:14;8.00;58.60
33476;DHT22;19814;48.224;11.422;2023-03-11T14:01:39;7.80;61.60
33476;DHT22;19814;48.224;11.422;2023-03-11T14:04:09;7.70;60.90
33476;DHT22;19814;48.224;11.422;2023-03-11T14:06:34;7.90;59.50
33476;DHT22;19814;48.224;11.422;2023-03-11T14:09:00;7.60;60.00
33476;DHT22;19814;48.224;11.422;2023-03-11T14:11:26;7.50;62.10
33476;DHT22;19814;48.224;11.422;2023-03-11T14:13:53;7.40;61.50
33476;DHT22;19814;48.224;11.422;2023-03-11T14:21:26;7.70;60.70
33476;DHT22;19814;48.224;11.422;2023-03-11T14:23:52;7.60;60.50
33476;DHT22;19814;48.224;11.422;2023-03-11T14:28:44;7.40;63.30
33476;DHT22;19814;48.224;11.422;2023-03-11T14:34:15;7.60;63.20
33476;DHT22;19814;48.224;11.422;2023-03-11T14:36:42;7.70;64.10
33476;DHT22;19814;48.224;11.422;2023-03-11T14:41:49;7.60;62.40
33476;DHT22;19814;48.224;11.422;2023-03-11T14:44:16;7.40;61.90
33476;DHT22;19814;48.224;11.422;2023-03-11T14:46:42;7.20;59.70
33476;DHT22;19814;48.224;11.422;2023-03-11T14:49:11;7.10;61.70
33476;DHT22;19814;48.224;11.422;2023-03-11T14:51:38;7.20;61.90
33476;DHT22;19814;48.224;11.422;2023-03-11T14:54:05;7.10;61.60
33476;DHT22;19814;48.224;11.422;2023-03-11T14:56:31;7.00;65.20
33476;DHT22;19814;48.224;11.422;2023-03-11T14:59:02;7.00;68.40
33476;DHT22;19814;48.224;11.422;2023-03-11T15:01:32;7.10;66.30
33476;DHT22;19814;48.224;11.422;2023-03-11T15:04:03;7.00;66.30
33476;DHT22;19814;48.224;11.422;2023-03-11T15:06:30;7.10;66.00
33476;DHT22;19814;48.224;11.422;2023-03-11T15:14:25;6.90;66.70
33476;DHT22;19814;48.224;11.422;2023-03-11T15:16:51;6.70;65.70
33476;DHT22;19814;48.224;11.422;2023-03-11T15:19:20;6.50;65.30
33476;DHT22;19814;48.224;11.422;2023-03-11T15:21:47;6.50;67.20
33476;DHT22;19814;48.224;11.422;2023-03-11T15:24:23;6.60;67.30
33476;DHT22;19814;48.224;11.422;2023-03-11T15:29:45;6.90;69.00
33476;DHT22;19814;48.224;11.422;2023-03-11T15:35:28;6.60;65.70
33476;DHT22;19814;48.224;11.422;2023-03-11T15:37:46;6.30;66.80
33476;DHT22;19814;48.224;11.422;2023-03-11T15:40:22;6.20;67.30
33476;DHT22;19814;48.224;11.422;2023-03-11T15:42:49;6.20;68.50
33476;DHT22;19814;48.224;11.422;2023-03-11T15:45:27;6.20;68.10
33476;DHT22;19814;48.224;11.422;2023-03-11T15:47:53;6.20;69.40
33476;DHT22;19814;48.224;11.422;2023-03-11T15:50:22;6.20;68.70
33476;DHT22;19814;48.224;11.422;2023-03-11T15:52:49;6.10;68.40
33476;DHT22;19814;48.224;11.422;2023-03-11T15:55:15;5.90;69.30
33476;DHT22;19814;48.224;11.422;2023-03-11T15:57:40;5.80;68.20
33476;DHT22;19814;48.224;11.422;2023-03-11T16:00:13;5.70;70.90
33476;DHT22;19814;48.224;11.422;2023-03-11T16:02:39;5.70;72.20
33476;DHT22;19814;48.224;11.422;2023-03-11T16:05:11;5.60;71.20
33476;DHT22;19814;48.224;11.422;2023-03-11T16:07:36;5.70;72.10
33476;DHT22;19814;48.224;11.422;2023-03-11T16:10:02;5.70;74.00
33476;DHT22;19814;48.224;11.422;2023-03-11T16:12:27;5.80;73.30
33476;DHT22;19814;48.224;11.422;2023-03-11T16:14:53;5.80;72.30
33476;DHT22;19814;48.224;11.422;2023-03-11T16:17:18;5.80;73.00
33476;DHT22;19814;48.224;11.422;2023-03-11T16:19:45;5.70;71.60
33476;DHT22;19814;48.224;11.422;2023-03-11T16:22:15;5.70;72.40
33476;DHT22;19814;48.224;11.422;2023-03-11T16:24:41;5.70;73.80
33476;DHT22;19814;48.224;11.422;2023-03-11T16:27:08;5.60;72.60
33476;DHT22;19814;48.224;11.422;2023-03-11T16:29:34;5.60;71.60
33476;DHT22;19814;48.224;11.422;2023-03-11T16:31:59;5.60;74.20
33476;DHT22;19814;48.224;11.422;2023-03-11T16:34:25;5.50;74.10
33476;DHT22;19814;48.224;11.422;2023-03-11T16:36:50;5.30;73.40
33476;DHT22;19814;48.224;11.422;2023-03-11T16:39:16;5.30;74.00
33476;DHT22;19814;48.224;11.422;2023-03-11T16:41:42;5.20;74.90
33476;DHT22;19814;48.224;11.422;2023-03-11T16:44:08;5.10;75.30
33476;DHT22;19814;48.224;11.422;2023-03-11T16:46:33;5.10;76.90
33476;DHT22;19814;48.224;11.422;2023-03-11T16:48:58;5.00;75.80
33476;DHT22;19814;48.224;11.422;2023-03-11T16:51:24;5.00;76.30
33476;DHT22;19814;48.224;11.422;2023-03-11T16:53:49;4.90;76.60
33476;DHT22;19814;48.224;11.422;2023-03-11T16:56:15;4.90;76.10
33476;DHT22;19814;48.224;11.422;2023-03-11T16:58:42;4.80;76.90
33476;DHT22;19814;48.224;11.422;2023-03-11T17:01:10;4.80;77.90
33476;DHT22;19814;48.224;11.422;2023-03-11T17:03:35;4.80;78.10
33476;DHT22;19814;48.224;11.422;2023-03-11T17:06:01;4.80;77.90
33476;DHT22;19814;48.224;11.422;2023-03-11T17:08:30;4.80;78.50
33476;DHT22;19814;48.224;11.422;2023-03-11T17:11:24;4.70;77.80
33476;DHT22;19814;48.224;11.422;2023-03-11T17:13:52;4.80;77.30
33476;DHT22;19814;48.224;11.422;2023-03-11T17:16:18;4.60;78.30
33476;DHT22;19814;48.224;11.422;2023-03-11T17:18:44;4.60;79.70
33476;DHT22;19814;48.224;11.422;2023-03-11T17:21:11;4.60;79.60
33476;DHT22;19814;48.224;11.422;2023-03-11T17:23:37;4.60;79.10
33476;DHT22;19814;48.224;11.422;2023-03-11T17:26:06;4.60;78.50
33476;DHT22;19814;48.224;11.422;2023-03-11T17:28:33;4.60;79.20